Iron Ridge, Wisconsin
Current Conditions -  °F | °C
As of 12:15 PM on Wednesday 28 Jan 2015 (Local Time) from KUNU Reporting Station
Clear Clear  
Wind Chill: 20°   Ceiling: Unl
Heat Index: 30°   Visibility: 10mi
Dew Point: 20°   Wind: 14mph
Humidity: 66%   Direction: 160°SSE
Pressure: 30.14"   Gusts: NA
Location:  43.4°N, 88.53°W
Report Text: KUNU 281815Z AUTO 16012KT 10SM CLR M01/M07 A3014 RMK AO2 T10111067
Loading
Personal Weather Stations






























Interactive Weather Map New forecast layout! Learn more

10-Day Weather Forecast

Advertisements
Track Severe Weather on mobile